createdAt,value
2022-08-17T02:31:00.039Z,20.89
2022-08-17T02:33:42.246Z,20.95
2022-08-17T02:36:40.433Z,20.85
2022-08-17T02:39:22.386Z,20.88
2022-08-17T02:42:01.974Z,20.88
2022-08-17T02:44:39.379Z,20.92
2022-08-17T02:47:11.721Z,20.84
2022-08-17T02:49:39.255Z,20.75
2022-08-17T02:52:08.463Z,20.75
2022-08-17T02:54:41.458Z,20.76
2022-08-17T02:57:15.567Z,20.79
2022-08-17T02:59:49.137Z,20.77
2022-08-17T03:02:19.563Z,20.78
2022-08-17T03:04:46.923Z,20.86
2022-08-17T03:07:17.976Z,20.96
2022-08-17T03:09:52.136Z,20.88
2022-08-17T03:12:25.180Z,20.78
2022-08-17T03:15:30.328Z,20.89
2022-08-17T03:18:02.532Z,20.89
2022-08-17T03:20:44.210Z,20.83
2022-08-17T03:23:25.418Z,20.83
2022-08-17T03:26:01.455Z,20.96
2022-08-17T03:28:45.294Z,21.00
2022-08-17T12:23:47.580Z,35.72
2022-08-17T16:31:29.253Z,27.99
2022-08-17T16:34:55.648Z,27.95
2022-08-17T16:42:31.028Z,27.81
2022-08-17T16:45:32.544Z,27.91
2022-08-17T16:52:56.290Z,27.65
2022-08-17T16:56:45.508Z,27.62
2022-08-17T17:05:22.032Z,27.45
2022-08-17T17:18:14.889Z,27.39
2022-08-17T17:38:20.381Z,26.85
2022-08-17T17:55:47.199Z,26.98
2022-08-17T18:00:09.494Z,26.92
2022-08-17T18:07:31.720Z,26.78
2022-08-17T18:11:37.822Z,26.67
2022-08-17T18:15:59.998Z,26.51
2022-08-17T18:18:44.151Z,26.65
2022-08-17T18:21:43.955Z,26.52
2022-08-17T18:26:12.060Z,26.49
2022-08-17T18:44:43.669Z,26.36
2022-08-17T18:48:24.909Z,26.28
2022-08-17T19:00:20.339Z,25.85
2022-08-17T19:13:04.790Z,25.67
2022-08-17T19:16:53.063Z,25.63
2022-08-17T19:19:49.914Z,25.66
2022-08-17T19:26:51.025Z,25.57
2022-08-17T19:29:22.342Z,25.71
2022-08-17T19:34:46.119Z,25.61
2022-08-17T19:37:24.861Z,25.72
2022-08-17T19:40:41.803Z,25.48
2022-08-17T19:43:35.088Z,25.74
2022-08-17T19:46:29.742Z,25.72
2022-08-17T19:49:06.473Z,25.71
2022-08-17T19:51:58.237Z,25.59
2022-08-17T19:54:40.032Z,25.46
2022-08-17T19:57:17.668Z,25.52
2022-08-17T20:03:16.753Z,25.35
2022-08-17T20:06:11.464Z,25.46
2022-08-17T20:08:50.817Z,25.41
2022-08-17T20:11:41.937Z,25.37
2022-08-17T20:14:26.647Z,25.17
2022-08-17T20:16:58.187Z,25.15
2022-08-17T20:19:59.911Z,25.28
2022-08-17T20:22:49.576Z,25.31
2022-08-17T20:25:39.798Z,25.16
2022-08-17T20:28:16.388Z,25.03
2022-08-17T20:30:46.170Z,24.98
2022-08-17T20:33:27.846Z,25.18
2022-08-17T20:36:19.912Z,25.15
2022-08-17T20:39:01.206Z,24.88
2022-08-17T20:41:32.154Z,24.88
2022-08-17T20:44:04.988Z,24.77
2022-08-17T20:46:35.463Z,24.99
2022-08-17T20:49:08.932Z,24.95
2022-08-17T20:51:39.903Z,24.88
2022-08-17T20:54:28.288Z,24.72
2022-08-17T20:56:58.632Z,24.79
2022-08-17T20:59:26.192Z,24.83
2022-08-17T21:02:17.679Z,24.57
2022-08-17T21:04:54.768Z,24.75
2022-08-17T21:07:42.849Z,24.74
2022-08-17T21:10:35.897Z,24.69
2022-08-17T21:13:13.984Z,24.67
2022-08-17T21:16:03.287Z,24.53
2022-08-17T21:19:02.719Z,24.54
2022-08-17T21:21:58.593Z,24.59
2022-08-17T21:24:46.929Z,24.64
2022-08-17T21:27:34.164Z,24.57
2022-08-17T21:30:10.220Z,24.48
2022-08-17T21:33:25.310Z,24.53
2022-08-17T21:36:17.509Z,24.36
2022-08-17T21:38:48.066Z,24.47
2022-08-17T21:41:27.623Z,24.32
2022-08-17T21:44:12.705Z,24.27
2022-08-17T21:46:46.698Z,24.03
2022-08-17T21:49:18.232Z,23.99
2022-08-17T21:51:54.130Z,24.07
2022-08-17T21:54:53.987Z,24.05
2022-08-17T21:57:28.318Z,23.85
2022-08-17T21:59:59.606Z,24.00
2022-08-17T22:02:42.021Z,23.81
2022-08-17T22:05:13.034Z,23.86
2022-08-17T22:07:50.934Z,23.82
2022-08-17T22:10:32.218Z,23.80
2022-08-17T22:13:29.551Z,23.82
2022-08-17T22:16:28.629Z,23.65
2022-08-17T22:18:59.314Z,23.55
2022-08-17T22:21:27.781Z,23.55
2022-08-17T22:24:25.201Z,23.58
2022-08-17T22:27:11.809Z,23.50
2022-08-17T22:29:54.320Z,23.43
2022-08-17T22:32:35.653Z,23.48
2022-08-17T22:35:21.456Z,23.46
2022-08-17T22:37:49.740Z,23.26
2022-08-17T22:40:26.420Z,23.31
2022-08-17T22:42:57.563Z,23.19
2022-08-17T22:45:26.164Z,23.34
2022-08-17T22:47:56.625Z,23.21
2022-08-17T22:50:28.295Z,23.04
2022-08-17T22:53:21.544Z,23.23
2022-08-17T22:56:09.133Z,23.06
2022-08-17T22:59:14.167Z,23.05
2022-08-17T23:01:43.580Z,22.97
2022-08-17T23:04:29.769Z,23.03
2022-08-17T23:06:57.312Z,23.08
2022-08-17T23:09:24.677Z,22.95
2022-08-17T23:13:10.428Z,23.10
2022-08-17T23:15:41.358Z,22.85
2022-08-17T23:18:09.058Z,22.95
2022-08-17T23:20:39.499Z,23.05
2022-08-17T23:23:09.404Z,22.94
2022-08-17T23:25:44.732Z,22.78
2022-08-17T23:28:15.338Z,22.87
2022-08-17T23:30:45.116Z,22.88
2022-08-17T23:33:27.818Z,22.88
2022-08-17T23:35:55.836Z,22.81
2022-08-17T23:38:27.486Z,22.86
2022-08-17T23:41:01.040Z,22.85
2022-08-17T23:43:57.168Z,22.86
2022-08-17T23:46:25.478Z,22.63
2022-08-17T23:48:56.126Z,22.47
2022-08-17T23:51:39.954Z,22.63
2022-08-17T23:54:13.843Z,22.58
2022-08-17T23:56:47.569Z,22.70
2022-08-17T23:59:16.527Z,22.49
